Time;durP1;ratioP1;P1;durP2;ratioP2;P2;SDS_P1;SDS_P2;PMS_P1;PMS_P2;Temp;Humidity;BMP_temperature;BMP_pressure;BME280_temperature;BME280_humidity;BME280_pressure;Samples;Min_cycle;Max_cycle;Signal;HPM_P1;HPM_P2
2021/03/14 00:00:59;;;;;;;9.80;4.17;;;;;;;4.71;80.26;98945.31;6205722;28;20233;-56
2021/03/14 00:04:20;;;;;;;6.67;2.17;;;;;;;4.41;79.80;98955.22;6213207;28;20283;-59
2021/03/14 00:07:41;;;;;;;2.37;1.57;;;;;;;4.41;79.88;98951.78;6210875;28;20363;-56
2021/03/14 00:11:04;;;;;;;4.53;1.70;;;;;;;4.23;79.64;98978.66;6211728;28;20229;-60
2021/03/14 00:14:24;;;;;;;6.67;2.00;;;;;;;4.46;79.90;98973.19;6213250;28;20233;-56
2021/03/14 00:17:45;;;;;;;5.03;2.03;;;;;;;4.58;77.88;98980.75;6197467;28;20242;-57
2021/03/14 00:21:07;;;;;;;4.87;2.17;;;;;;;4.47;79.56;98993.78;6189237;28;20842;-57
2021/03/14 00:24:27;;;;;;;8.00;3.43;;;;;;;4.67;78.37;99005.56;6198935;28;20226;-54
2021/03/14 00:27:47;;;;;;;4.00;2.50;;;;;;;4.83;78.72;99021.69;6210658;28;20709;-58
2021/03/14 00:31:08;;;;;;;12.73;3.63;;;;;;;4.98;77.99;99012.84;6212628;28;20232;-57
2021/03/14 00:34:28;;;;;;;3.70;2.17;;;;;;;4.89;78.39;99026.75;6197676;28;20610;-57
2021/03/14 00:37:49;;;;;;;7.17;2.37;;;;;;;5.15;78.86;99038.41;6212739;28;20241;-58
2021/03/14 00:41:11;;;;;;;7.03;2.53;;;;;;;5.05;78.03;99048.00;6201557;28;20229;-58
2021/03/14 00:44:31;;;;;;;6.77;2.63;;;;;;;5.05;78.68;99060.91;6213723;28;20296;-57
2021/03/14 00:47:52;;;;;;;6.67;2.80;;;;;;;5.40;77.62;99072.44;6202602;28;20225;-56
2021/03/14 00:51:12;;;;;;;6.30;2.10;;;;;;;4.98;77.68;99079.91;6208486;28;20311;-58
2021/03/14 00:54:39;;;;;;;4.93;2.27;;;;;;;5.32;77.38;99090.63;6214326;28;20244;-56
2021/03/14 00:57:59;;;;;;;5.73;1.77;;;;;;;5.08;76.84;99094.44;6202626;28;20245;-58
2021/03/14 01:01:20;;;;;;;8.23;1.43;;;;;;;5.04;77.45;99121.13;6211575;28;20710;-57
2021/03/14 01:04:40;;;;;;;2.07;1.10;;;;;;;5.06;76.55;99130.56;6204372;28;20229;-57
2021/03/14 01:08:01;;;;;;;4.47;1.47;;;;;;;4.91;76.80;99128.19;6201840;28;20328;-58
2021/03/14 01:11:23;;;;;;;2.03;1.00;;;;;;;4.99;76.69;99133.25;6196387;28;20238;-56
2021/03/14 01:15:04;;;;;;;2.73;1.40;;;;;;;4.79;78.07;99156.69;6206552;28;20224;-57
2021/03/14 01:18:33;;;;;;;1.73;1.40;;;;;;;4.90;76.64;99160.00;6213004;28;20586;-55
2021/03/14 01:21:54;;;;;;;4.97;1.53;;;;;;;4.88;76.89;99188.38;6189226;28;20233;-57
2021/03/14 01:25:14;;;;;;;1.90;1.67;;;;;;;5.03;76.14;99186.50;6200510;28;20241;-55
2021/03/14 01:28:36;;;;;;;2.30;1.30;;;;;;;4.93;76.29;99184.03;6211815;28;20590;-56
2021/03/14 01:31:57;;;;;;;4.87;1.40;;;;;;;4.83;77.05;99203.09;6206731;28;20647;-58
2021/03/14 01:35:18;;;;;;;3.20;1.20;;;;;;;5.03;76.50;99202.00;6190983;28;20511;-57
2021/03/14 01:38:38;;;;;;;2.67;1.37;;;;;;;4.78;77.40;99204.84;6195774;28;20226;-57
2021/03/14 01:41:58;;;;;;;3.07;1.47;;;;;;;4.91;77.47;99221.91;6195911;28;20249;-57
2021/03/14 01:45:20;;;;;;;4.97;1.70;;;;;;;4.91;76.64;99236.53;6202959;28;20237;-57
2021/03/14 01:48:41;;;;;;;4.53;2.87;;;;;;;4.95;76.39;99229.63;6210501;28;20237;-58
2021/03/14 01:52:02;;;;;;;5.07;1.90;;;;;;;4.82;75.88;99237.47;6213807;28;20241;-57
2021/03/14 01:55:23;;;;;;;4.20;3.17;;;;;;;5.09;75.62;99238.03;6205535;28;20229;-54
2021/03/14 01:58:47;;;;;;;9.83;5.43;;;;;;;4.96;76.62;99250.22;6195529;28;20237;-56
2021/03/14 02:02:09;;;;;;;9.67;3.07;;;;;;;4.81;76.96;99253.84;6203897;28;20241;-58
2021/03/14 02:05:29;;;;;;;8.33;3.10;;;;;;;5.12;76.04;99266.41;6213217;28;20241;-57
2021/03/14 02:08:49;;;;;;;7.03;2.97;;;;;;;5.09;75.24;99267.25;6210846;28;20233;-56
2021/03/14 02:12:15;;;;;;;5.00;2.47;;;;;;;4.93;75.24;99279.50;6211783;28;20280;-57
2021/03/14 02:15:38;;;;;;;13.30;3.27;;;;;;;4.99;75.08;99269.97;6201020;28;20229;-58
2021/03/14 02:19:02;;;;;;;3.23;2.43;;;;;;;5.07;75.73;99293.97;6211566;28;20704;-57
2021/03/14 02:22:23;;;;;;;6.83;3.37;;;;;;;5.03;75.19;99298.31;6199365;28;20229;-56
2021/03/14 02:25:48;;;;;;;10.23;3.00;;;;;;;5.33;74.12;99291.94;6200517;28;20221;-57
2021/03/14 02:29:12;;;;;;;10.10;4.43;;;;;;;5.26;74.20;99307.53;6184500;28;20237;-58
2021/03/14 02:32:33;;;;;;;8.43;2.90;;;;;;;5.31;74.76;99313.47;6206979;28;20618;-59
2021/03/14 02:35:55;;;;;;;8.73;3.53;;;;;;;5.31;74.61;99316.06;6209362;28;20230;-57
2021/03/14 02:39:20;;;;;;;6.50;2.63;;;;;;;5.22;75.34;99323.94;6202353;28;20229;-56
2021/03/14 02:42:42;;;;;;;13.60;3.80;;;;;;;5.53;74.28;99329.59;6198190;28;20253;-59
2021/03/14 02:46:05;;;;;;;8.50;3.57;;;;;;;5.55;75.19;99339.91;6194499;28;20658;-57
2021/03/14 02:49:26;;;;;;;17.20;7.23;;;;;;;5.74;74.14;99349.13;6192613;28;20228;-58
2021/03/14 02:52:48;;;;;;;10.33;3.83;;;;;;;5.37;74.27;99347.00;6220414;28;20236;-57
2021/03/14 02:56:09;;;;;;;11.73;3.33;;;;;;;5.38;73.52;99345.25;6212561;28;20540;-58
2021/03/14 02:59:31;;;;;;;12.90;4.47;;;;;;;5.49;72.42;99358.91;6212945;28;20514;-56
2021/03/14 03:02:55;;;;;;;15.97;6.33;;;;;;;5.65;72.54;99370.75;6209508;28;20229;-57
2021/03/14 03:06:16;;;;;;;7.17;3.70;;;;;;;5.66;71.88;99377.63;6206602;28;20245;-57
2021/03/14 03:09:37;;;;;;;9.47;4.00;;;;;;;5.66;71.30;99377.63;6198077;28;20328;-57
2021/03/14 03:13:00;;;;;;;13.43;4.87;;;;;;;5.48;71.37;99389.00;6221787;28;20233;-56
2021/03/14 03:16:24;;;;;;;9.27;3.93;;;;;;;5.32;70.61;99396.06;6218680;28;20614;-57
2021/03/14 03:19:45;;;;;;;6.47;3.87;;;;;;;5.56;70.70;99406.16;6214898;28;20531;-53
2021/03/14 03:23:06;;;;;;;8.10;4.07;;;;;;;5.43;69.94;99413.16;6193219;28;20249;-56
2021/03/14 03:26:26;;;;;;;7.37;3.40;;;;;;;5.38;69.50;99428.72;6209202;28;20237;-56
2021/03/14 03:29:47;;;;;;;8.23;4.13;;;;;;;5.59;69.60;99437.97;6217083;28;20269;-58
2021/03/14 03:33:08;;;;;;;8.57;3.87;;;;;;;5.65;69.75;99443.06;6215180;28;20233;-58
2021/03/14 03:36:29;;;;;;;8.10;3.93;;;;;;;5.73;69.52;99453.31;6204124;28;20229;-57
2021/03/14 03:39:50;;;;;;;6.37;3.70;;;;;;;5.55;69.25;99448.34;6221443;28;20256;-55
2021/03/14 03:43:15;;;;;;;4.83;3.53;;;;;;;5.46;69.04;99464.78;6218773;28;20357;-58
2021/03/14 03:46:36;;;;;;;6.33;3.37;;;;;;;5.63;68.64;99464.63;6215716;28;20554;-55
2021/03/14 03:49:58;;;;;;;7.30;3.83;;;;;;;5.53;69.16;99479.34;6204895;28;20257;-57
2021/03/14 03:53:20;;;;;;;8.90;4.83;;;;;;;5.62;68.77;99491.31;6220771;28;20336;-55
2021/03/14 03:56:41;;;;;;;2.87;2.57;;;;;;;5.42;68.80;99486.34;6218199;28;20233;-58
2021/03/14 04:00:03;;;;;;;11.47;5.17;;;;;;;5.54;68.37;99486.22;6215069;28;20237;-57
2021/03/14 04:03:25;;;;;;;6.43;4.23;;;;;;;5.52;67.29;99495.72;6213316;28;20248;-57
2021/03/14 04:06:48;;;;;;;5.47;3.50;;;;;;;5.59;66.97;99504.28;6215574;28;20241;-56
2021/03/14 04:10:13;;;;;;;5.47;3.47;;;;;;;5.66;66.78;99514.53;6215105;28;20241;-54
2021/03/14 04:13:35;;;;;;;6.57;4.00;;;;;;;5.60;67.55;99527.47;6196576;28;20269;-57
2021/03/14 04:16:56;;;;;;;9.37;4.60;;;;;;;5.75;67.43;99528.22;6202929;28;20253;-58
2021/03/14 04:20:20;;;;;;;9.77;4.03;;;;;;;5.73;67.46;99533.38;6198368;28;20229;-56
2021/03/14 04:23:44;;;;;;;6.67;3.13;;;;;;;5.71;67.55;99551.47;6213702;28;20664;-55
2021/03/14 04:27:07;;;;;;;10.27;3.23;;;;;;;5.65;68.18;99561.88;6216265;28;20249;-55
2021/03/14 04:30:31;;;;;;;12.03;5.17;;;;;;;5.95;67.12;99567.66;6212056;28;20344;-55
2021/03/14 04:33:52;;;;;;;8.07;3.37;;;;;;;6.04;67.44;99580.47;6211258;28;20618;-57
2021/03/14 04:37:13;;;;;;;6.43;3.37;;;;;;;5.82;67.57;99594.47;6214182;28;20237;-55
2021/03/14 04:40:35;;;;;;;11.53;3.20;;;;;;;5.97;67.72;99594.34;6207055;28;20229;-58
2021/03/14 04:43:57;;;;;;;5.47;3.17;;;;;;;5.91;68.49;99604.69;6215056;28;20595;-54
2021/03/14 04:47:17;;;;;;;11.70;3.93;;;;;;;5.85;68.75;99609.94;6212431;28;20316;-53
2021/03/14 04:50:38;;;;;;;7.60;4.10;;;;;;;6.08;68.30;99620.94;6212091;28;20572;-55
2021/03/14 04:53:59;;;;;;;10.70;4.37;;;;;;;6.07;68.28;99631.31;6214157;28;20236;-55
2021/03/14 04:57:21;;;;;;;11.93;4.40;;;;;;;5.99;68.59;99636.53;6214281;28;20266;-58
2021/03/14 05:00:43;;;;;;;14.83;5.43;;;;;;;6.04;68.15;99647.69;6212771;28;20229;-56
2021/03/14 05:04:06;;;;;;;8.63;3.53;;;;;;;6.08;68.54;99654.53;6200516;28;20241;-57
2021/03/14 05:07:28;;;;;;;14.20;4.73;;;;;;;5.84;68.52;99667.66;6203265;28;20634;-56
2021/03/14 05:10:50;;;;;;;9.47;4.40;;;;;;;6.03;68.08;99668.38;6208810;28;20228;-56
2021/03/14 05:14:12;;;;;;;8.87;3.50;;;;;;;5.90;68.12;99680.53;6212943;28;20619;-55
2021/03/14 05:17:34;;;;;;;12.43;4.63;;;;;;;6.15;67.99;99693.28;6210227;28;20642;-57
2021/03/14 05:20:55;;;;;;;11.67;4.17;;;;;;;5.98;67.54;99706.34;6201563;28;20221;-58
2021/03/14 05:24:16;;;;;;;11.50;3.70;;;;;;;6.21;66.87;99719.06;6192961;28;20240;-57
2021/03/14 05:27:36;;;;;;;11.23;4.73;;;;;;;6.26;67.11;99715.56;6212394;28;20225;-55
2021/03/14 05:30:57;;;;;;;11.63;3.27;;;;;;;6.25;66.93;99719.00;6204188;28;20256;-57
2021/03/14 05:34:18;;;;;;;13.20;4.00;;;;;;;6.27;66.60;99732.78;6207470;28;20233;-55
2021/03/14 05:37:39;;;;;;;10.07;3.20;;;;;;;6.15;67.04;99735.50;6212095;28;20236;-58
2021/03/14 05:40:59;;;;;;;8.43;2.80;;;;;;;6.25;66.73;99737.13;6214937;28;20221;-54
2021/03/14 05:44:21;;;;;;;13.53;3.67;;;;;;;6.25;66.78;99751.78;6214793;28;20240;-58
2021/03/14 05:47:41;;;;;;;16.07;4.73;;;;;;;6.07;67.17;99756.22;6204034;28;20250;-57
2021/03/14 05:51:03;;;;;;;6.77;3.90;;;;;;;6.12;67.36;99763.94;6210465;28;20240;-57
2021/03/14 05:54:23;;;;;;;13.20;3.90;;;;;;;6.18;67.35;99770.78;6211104;28;20237;-56
2021/03/14 05:57:44;;;;;;;18.37;6.03;;;;;;;6.43;67.12;99779.19;6201964;28;20226;-55
2021/03/14 06:01:11;;;;;;;10.43;5.83;;;;;;;6.53;67.09;99782.56;6197346;28;20238;-57
2021/03/14 06:09:31;;;;;;;10.10;3.50;;;;;;;6.33;67.29;99801.69;6176739;28;20253;-55
2021/03/14 06:12:51;;;;;;;11.03;4.03;;;;;;;6.63;66.79;99815.22;6208391;28;20230;-56
2021/03/14 06:16:12;;;;;;;13.93;3.77;;;;;;;6.62;66.94;99821.28;6203263;28;20328;-58
2021/03/14 06:19:33;;;;;;;11.67;3.87;;;;;;;6.56;67.15;99826.53;6212034;28;20241;-56
2021/03/14 06:23:05;;;;;;;9.80;3.40;;;;;;;6.35;67.57;99843.91;6211729;28;20221;-56
2021/03/14 06:26:35;;;;;;;13.73;5.03;;;;;;;6.43;67.37;99847.28;6209501;28;20638;-55
2021/03/14 06:29:55;;;;;;;12.77;3.90;;;;;;;6.56;67.16;99852.41;6206863;28;20560;-56
2021/03/14 06:33:18;;;;;;;11.80;4.90;;;;;;;6.54;67.24;99872.25;6213904;28;20237;-57
2021/03/14 06:36:38;;;;;;;14.17;4.87;;;;;;;6.61;67.23;99876.47;6209444;28;20233;-54
2021/03/14 06:40:07;;;;;;;12.20;4.37;;;;;;;6.47;67.86;99882.59;6207933;28;20709;-55
2021/03/14 06:43:32;;;;;;;10.33;4.20;;;;;;;6.67;67.97;99889.41;6214367;28;20668;-54
2021/03/14 06:46:53;;;;;;;13.33;5.37;;;;;;;6.45;68.68;99909.38;6211361;28;20233;-57
2021/03/14 06:50:19;;;;;;;15.23;4.23;;;;;;;6.68;68.29;99924.72;6209460;28;20272;-57
2021/03/14 06:53:39;;;;;;;12.33;5.13;;;;;;;6.77;67.96;99929.84;6212542;28;20451;-57
2021/03/14 06:57:12;;;;;;;11.33;4.40;;;;;;;6.79;68.02;99933.28;6201694;28;20221;-58
2021/03/14 07:00:33;;;;;;;11.17;4.43;;;;;;;6.92;68.27;99946.09;6208182;28;20248;-55
2021/03/14 07:03:55;;;;;;;14.87;4.40;;;;;;;6.93;68.02;99953.03;6203773;28;20258;-55
2021/03/14 07:07:18;;;;;;;17.97;5.53;;;;;;;6.65;69.02;99977.38;6211512;28;20308;-55
2021/03/14 07:10:38;;;;;;;21.73;4.90;;;;;;;6.69;68.45;99980.81;6206646;28;20627;-55
2021/03/14 07:13:59;;;;;;;21.07;6.97;;;;;;;6.65;68.50;99992.00;6205058;28;20221;-54
2021/03/14 07:17:28;;;;;;;12.33;4.87;;;;;;;6.59;69.17;99999.81;6205067;28;20230;-55
2021/03/14 07:20:48;;;;;;;13.70;5.63;;;;;;;6.79;68.47;100017.81;6205336;28;20232;-55
2021/03/14 07:24:13;;;;;;;15.43;5.17;;;;;;;6.91;67.76;100020.31;6209838;28;20229;-54
2021/03/14 07:27:33;;;;;;;17.57;6.10;;;;;;;7.04;67.73;100029.72;6207438;28;20344;-55
2021/03/14 07:30:54;;;;;;;11.97;4.10;;;;;;;6.95;67.72;100037.56;6206581;28;20225;-55
2021/03/14 07:34:16;;;;;;;10.67;4.60;;;;;;;6.70;68.45;100039.44;6208994;28;20233;-55
2021/03/14 07:37:41;;;;;;;14.23;4.37;;;;;;;6.83;68.27;100053.16;6213499;28;20225;-55
2021/03/14 07:41:03;;;;;;;15.57;6.20;;;;;;;7.03;67.89;100055.63;6214555;28;20229;-56
2021/03/14 07:44:25;;;;;;;12.37;4.33;;;;;;;7.05;67.64;100065.09;6202857;28;20221;-57
2021/03/14 07:47:46;;;;;;;16.50;5.40;;;;;;;6.77;68.60;100079.94;6215424;28;20236;-57
2021/03/14 07:51:08;;;;;;;14.33;4.47;;;;;;;6.82;68.32;100088.53;6207669;28;20240;-55
2021/03/14 07:54:33;;;;;;;19.20;5.37;;;;;;;6.85;68.57;100088.50;6201897;28;20316;-53
2021/03/14 07:57:54;;;;;;;11.70;4.13;;;;;;;6.85;68.46;100100.59;6221599;28;20243;-57
2021/03/14 08:01:28;;;;;;;11.87;4.90;;;;;;;7.20;67.53;100100.38;6209750;28;20320;-56
2021/03/14 08:04:49;;;;;;;10.70;4.60;;;;;;;7.38;66.57;100103.72;6207705;28;20609;-57
2021/03/14 08:08:11;;;;;;;13.17;4.80;;;;;;;7.44;66.76;100125.28;6214313;28;20316;-55
2021/03/14 08:11:31;;;;;;;14.47;4.53;;;;;;;7.42;66.49;100111.44;6213275;28;20241;-55
2021/03/14 08:14:54;;;;;;;10.83;4.67;;;;;;;7.41;66.82;100119.25;6218119;28;20229;-54
2021/03/14 08:18:35;;;;;;;15.63;6.40;;;;;;;7.23;67.41;100131.47;6212506;28;20528;-57
2021/03/14 08:21:55;;;;;;;14.80;4.37;;;;;;;7.57;66.78;100136.38;6208649;28;20217;-56
2021/03/14 08:25:19;;;;;;;15.70;4.88;;;;;;;7.41;66.96;100147.75;6203250;28;20768;-57
2021/03/14 08:28:52;;;;;;;9.73;4.10;;;;;;;7.81;65.71;100153.50;6207123;28;20740;-57
2021/03/14 08:32:23;;;;;;;15.20;3.80;;;;;;;7.65;66.71;100163.09;6203533;28;20236;-56
2021/03/14 08:35:47;;;;;;;22.50;5.30;;;;;;;7.51;66.81;100177.03;6199708;28;20925;-55
2021/03/14 08:39:19;;;;;;;10.53;4.20;;;;;;;7.86;65.81;100180.22;6216306;28;20233;-58
2021/03/14 08:42:51;;;;;;;12.87;6.13;;;;;;;7.40;66.45;100179.69;6210622;28;20622;-58
2021/03/14 08:46:13;;;;;;;10.57;4.00;;;;;;;7.42;65.73;100190.91;6208929;28;20552;-56
2021/03/14 08:49:45;;;;;;;8.07;3.80;;;;;;;8.26;66.72;100197.19;6213079;28;20245;-57
2021/03/14 08:53:06;;;;;;;8.30;4.13;;;;;;;8.55;64.56;100198.63;6208292;28;20233;-59
2021/03/14 08:56:45;;;;;;;48.83;20.00;;;;;;;8.42;64.36;100216.94;6211067;28;20229;-61
2021/03/14 09:00:08;;;;;;;39.37;34.13;;;;;;;8.86;62.88;100207.81;6212193;28;20241;-59
2021/03/14 09:03:42;;;;;;;31.77;27.23;;;;;;;9.11;61.90;100217.03;6225311;28;20229;-60
2021/03/14 09:07:04;;;;;;;198.87;179.20;;;;;;;8.23;63.04;100236.97;6210280;28;20226;-61
2021/03/14 09:10:25;;;;;;;51.53;46.57;;;;;;;8.50;63.00;100231.56;6210262;28;20590;-62
2021/03/14 09:13:58;;;;;;;12.00;6.37;;;;;;;8.60;63.63;100236.66;6206345;28;20638;-62
2021/03/14 09:17:27;;;;;;;9.10;3.10;;;;;;;9.10;59.79;100242.16;6197960;28;20224;-60
2021/03/14 09:20:56;;;;;;;9.40;4.13;;;;;;;8.85;59.82;100242.44;6209891;28;21064;-60
2021/03/14 09:24:28;;;;;;;9.80;3.03;;;;;;;8.53;60.58;100250.59;6210067;28;20236;-59
2021/03/14 09:27:50;;;;;;;11.90;2.97;;;;;;;8.74;59.98;100253.81;6207959;28;20237;-60
2021/03/14 09:31:18;;;;;;;7.77;2.40;;;;;;;9.04;58.95;100265.63;6210894;28;20233;-63
2021/03/14 09:35:27;;;;;;;8.20;2.97;;;;;;;9.27;57.95;100274.00;6201858;28;20237;-60
2021/03/14 09:38:58;;;;;;;8.37;3.90;;;;;;;9.02;59.20;100277.75;6192842;28;20233;-59
2021/03/14 09:42:26;;;;;;;10.00;2.60;;;;;;;9.02;58.54;100282.97;6210446;28;20252;-60
2021/03/14 09:46:01;;;;;;;4.67;2.40;;;;;;;9.79;56.50;100275.03;6209059;28;20241;-60
2021/03/14 09:49:22;;;;;;;9.23;2.43;;;;;;;9.33;57.52;100280.00;6201537;28;20237;-60
2021/03/14 09:52:58;;;;;;;8.80;2.50;;;;;;;9.70;56.50;100279.50;6195359;28;20229;-59
2021/03/14 09:56:21;;;;;;;10.67;3.97;;;;;;;10.02;55.49;100300.72;6210407;28;20233;-60
2021/03/14 09:59:59;;;;;;;7.07;3.07;;;;;;;9.18;56.94;100296.63;6203862;28;20233;-61
2021/03/14 10:03:38;;;;;;;10.67;3.53;;;;;;;9.22;56.56;100291.38;6204181;28;20529;-60
2021/03/14 10:07:05;;;;;;;10.47;2.80;;;;;;;9.72;54.92;100303.75;6208694;28;20232;-61
2021/03/14 10:10:26;;;;;;;14.10;2.63;;;;;;;10.04;54.22;100311.06;6211543;28;20233;-60
2021/03/14 10:13:55;;;;;;;7.33;2.53;;;;;;;10.63;52.31;100308.44;6204786;28;20768;-61
2021/03/14 10:17:16;;;;;;;8.97;2.43;;;;;;;9.28;55.04;100321.63;6211626;28;20237;-60
2021/03/14 10:20:40;;;;;;;7.23;1.37;;;;;;;8.45;57.13;100323.31;6206199;28;20528;-59
2021/03/14 10:24:20;;;;;;;4.17;1.63;;;;;;;7.72;62.58;100365.25;6211482;28;20241;-60
2021/03/14 10:27:48;;;;;;;8.83;2.17;;;;;;;8.10;62.19;100352.06;6206074;28;20225;-57
2021/03/14 10:31:32;;;;;;;9.60;2.40;;;;;;;9.39;59.76;100357.88;6213120;28;20228;-54
2021/03/14 10:34:56;;;;;;;6.53;2.23;;;;;;;9.78;58.86;100347.88;6213010;28;20614;-57
2021/03/14 10:38:19;;;;;;;8.70;2.17;;;;;;;12.25;55.52;100346.91;6207996;28;20249;-57
2021/03/14 10:41:45;;;;;;;8.40;3.53;;;;;;;15.50;46.69;100346.78;6212696;28;20606;-58
2021/03/14 10:45:12;;;;;;;9.37;3.00;;;;;;;19.65;36.58;100332.41;6210738;28;20656;-58
2021/03/14 10:48:35;;;;;;;11.93;2.83;;;;;;;14.34;44.74;100342.00;6209160;28;20237;-58
2021/03/14 10:51:59;;;;;;;5.90;2.63;;;;;;;11.06;55.61;100359.75;6197217;28;20453;-54
2021/03/14 10:55:30;;;;;;;3.57;1.40;;;;;;;10.07;56.02;100389.09;6199880;28;20233;-55
2021/03/14 10:58:51;;;;;;;8.00;2.10;;;;;;;8.72;61.95;100380.19;6203584;28;20622;-56
2021/03/14 11:02:41;;;;;;;4.40;1.20;;;;;;;8.22;63.77;100384.81;6210482;28;20253;-58
2021/03/14 11:06:11;;;;;;;3.80;1.33;;;;;;;8.81;63.23;100388.75;6205469;28;20244;-57
2021/03/14 11:09:32;;;;;;;6.13;2.93;;;;;;;9.12;61.91;100395.41;6220510;28;20232;-55
2021/03/14 11:12:53;;;;;;;4.10;1.80;;;;;;;8.79;63.29;100411.28;6212502;28;20270;-55
2021/03/14 11:16:24;;;;;;;2.83;1.50;;;;;;;8.35;64.33;100398.59;6212036;28;20765;-55
2021/03/14 11:19:50;;;;;;;6.60;2.10;;;;;;;9.86;60.65;100398.88;6213878;28;20228;-58
2021/03/14 11:23:12;;;;;;;8.13;2.43;;;;;;;12.45;53.21;100391.69;6218416;28;20508;-55
2021/03/14 11:26:32;;;;;;;4.23;1.90;;;;;;;16.28;42.49;100379.72;6190967;28;20257;-57
2021/03/14 11:29:53;;;;;;;2.80;1.67;;;;;;;19.90;36.24;100383.94;6210269;28;20610;-58
2021/03/14 11:33:16;;;;;;;5.93;1.67;;;;;;;20.18;36.10;100396.50;6215974;28;20222;-56
2021/03/14 11:37:01;;;;;;;7.82;2.67;;;;;;;18.91;35.83;100388.22;6217039;28;20617;-57
2021/03/14 11:40:37;;;;;;;4.70;2.20;;;;;;;15.19;42.52;100398.66;6215452;28;20240;-55
2021/03/14 11:44:33;;;;;;;9.17;4.43;;;;;;;14.43;46.95;100402.88;6201228;28;20225;-58
2021/03/14 11:47:53;;;;;;;8.03;2.20;;;;;;;13.28;47.71;100404.41;6215077;28;20225;-55
2021/03/14 11:51:34;;;;;;;4.33;1.73;;;;;;;15.15;43.72;100398.75;6206329;28;20316;-58
2021/03/14 11:55:05;;;;;;;6.83;2.33;;;;;;;18.33;38.21;100397.19;6216831;28;20602;-60
2021/03/14 11:58:26;;;;;;;5.80;2.08;;;;;;;16.54;40.21;100399.72;6214622;28;20241;-59
2021/03/14 12:01:50;;;;;;;9.70;3.87;;;;;;;13.47;45.25;100395.19;6212613;28;20249;-59
2021/03/14 12:05:15;;;;;;;5.33;2.40;;;;;;;13.42;46.32;100399.72;6214153;28;20232;-57
2021/03/14 12:08:36;;;;;;;6.63;3.13;;;;;;;14.98;43.17;100406.34;6207450;28;20234;-60
2021/03/14 12:11:59;;;;;;;5.73;2.07;;;;;;;20.76;31.64;100375.59;6211827;28;20603;-58
2021/03/14 12:15:20;;;;;;;7.95;2.50;;;;;;;20.65;31.58;100392.97;6209905;28;20304;-59
2021/03/14 12:18:43;;;;;;;10.27;1.98;;;;;;;23.14;27.03;100380.94;6214475;28;20225;-59
2021/03/14 12:22:04;;;;;;;8.90;2.15;;;;;;;19.11;31.10;100403.03;6213900;28;20237;-60
2021/03/14 12:25:26;;;;;;;2.22;1.25;;;;;;;15.40;36.29;100387.41;6212384;28;20229;-58
2021/03/14 12:28:50;;;;;;;4.25;1.70;;;;;;;15.54;37.08;100400.88;6215952;28;20241;-57
2021/03/14 12:32:15;;;;;;;8.37;2.10;;;;;;;14.05;41.32;100397.91;6210608;28;20698;-56
2021/03/14 12:35:37;;;;;;;4.40;1.57;;;;;;;17.60;33.40;100382.97;6224232;28;20229;-55
2021/03/14 12:39:04;;;;;;;5.50;2.30;;;;;;;16.47;34.94;100386.88;6216463;28;20229;-58
2021/03/14 12:42:25;;;;;;;7.50;2.38;;;;;;;22.46;27.23;100377.47;6210547;28;20225;-58
2021/03/14 12:45:52;;;;;;;10.48;3.55;;;;;;;23.33;25.80;100386.69;6211421;28;20232;-58
2021/03/14 12:49:12;;;;;;;4.97;2.03;;;;;;;21.14;27.11;100391.00;6212985;28;20237;-57
2021/03/14 12:52:34;;;;;;;4.82;1.80;;;;;;;16.22;33.46;100398.34;6215544;28;20237;-57
2021/03/14 12:55:54;;;;;;;4.22;1.60;;;;;;;13.50;39.96;100407.34;6207357;28;20225;-58
2021/03/14 12:59:15;;;;;;;7.97;2.50;;;;;;;12.87;42.04;100422.03;6201220;28;20324;-58
2021/03/14 13:02:39;;;;;;;7.90;2.63;;;;;;;15.10;39.03;100416.44;6214813;28;20229;-57
2021/03/14 13:06:00;;;;;;;6.30;2.47;;;;;;;14.03;40.19;100417.19;6218341;28;20229;-57
2021/03/14 13:09:20;;;;;;;4.80;1.47;;;;;;;16.63;35.76;100418.66;6201073;28;20237;-61
2021/03/14 13:12:41;;;;;;;5.03;2.53;;;;;;;16.49;37.95;100413.94;6212822;28;20489;-57
2021/03/14 13:16:02;;;;;;;9.57;1.73;;;;;;;14.28;42.94;100415.53;6211040;28;20221;-58
2021/03/14 13:19:23;;;;;;;7.07;3.27;;;;;;;13.06;46.86;100423.28;6203532;28;20225;-56
2021/03/14 13:22:44;;;;;;;7.03;2.40;;;;;;;12.18;46.66;100434.94;6210422;28;20221;-57
2021/03/14 13:26:05;;;;;;;6.35;2.15;;;;;;;11.97;45.45;100431.91;6209940;28;20779;-56
2021/03/14 13:29:26;;;;;;;6.90;2.23;;;;;;;12.27;45.48;100439.09;6206272;28;20228;-59
2021/03/14 13:32:46;;;;;;;9.27;2.30;;;;;;;11.72;45.50;100434.13;6213690;28;20597;-56
2021/03/14 13:36:07;;;;;;;9.50;3.07;;;;;;;12.30;44.13;100439.91;6205703;28;20666;-58
2021/03/14 13:39:28;;;;;;;7.60;2.10;;;;;;;11.99;44.91;100427.50;6216630;28;20237;-58
2021/03/14 13:42:49;;;;;;;6.57;1.83;;;;;;;14.85;36.25;100426.88;6216791;28;20241;-58
2021/03/14 13:46:10;;;;;;;8.90;1.83;;;;;;;14.18;38.12;100430.66;6205405;28;20237;-57
2021/03/14 13:49:30;;;;;;;5.23;1.77;;;;;;;12.92;39.86;100443.69;6201384;28;20273;-56
2021/03/14 13:57:22;;;;;;;7.67;3.43;;;;;;;11.27;44.47;100454.09;6208683;28;20307;-58
2021/03/14 14:00:43;;;;;;;7.07;2.60;;;;;;;11.34;44.53;100451.38;6209363;28;20237;-58
2021/03/14 14:04:04;;;;;;;7.07;2.30;;;;;;;12.26;41.68;100458.28;6207422;28;20241;-58
2021/03/14 14:07:25;;;;;;;5.83;2.10;;;;;;;12.16;43.73;100458.47;6214017;28;20229;-59
2021/03/14 14:10:46;;;;;;;8.20;2.40;;;;;;;13.00;41.38;100460.03;6202819;28;20241;-57
2021/03/14 14:14:07;;;;;;;12.27;4.30;;;;;;;15.09;39.16;100442.69;6210902;28;20225;-57
2021/03/14 14:17:28;;;;;;;7.43;2.73;;;;;;;14.55;39.31;100455.72;6197079;28;21168;-60
2021/03/14 14:20:48;;;;;;;6.03;1.67;;;;;;;17.62;32.29;100442.56;6213124;28;20237;-58
2021/03/14 14:24:10;;;;;;;4.63;1.63;;;;;;;16.83;32.82;100457.34;6206486;28;20622;-57
2021/03/14 14:27:30;;;;;;;3.97;1.23;;;;;;;16.20;31.66;100457.13;6213694;28;20236;-58
2021/03/14 14:30:52;;;;;;;4.17;2.20;;;;;;;15.47;33.82;100448.38;6212060;28;20241;-60
2021/03/14 14:34:12;;;;;;;4.20;2.10;;;;;;;13.31;38.33;100456.69;6205581;28;20618;-57
2021/03/14 14:37:33;;;;;;;5.00;1.70;;;;;;;13.89;37.26;100455.09;6202718;28;20264;-58
2021/03/14 14:40:53;;;;;;;7.20;1.60;;;;;;;13.38;38.76;100455.63;6194996;28;20233;-57
2021/03/14 14:44:14;;;;;;;3.93;1.40;;;;;;;14.16;37.69;100456.03;6209484;28;20245;-56
2021/03/14 14:47:35;;;;;;;6.43;1.67;;;;;;;13.01;38.23;100456.53;6208800;28;20528;-57
2021/03/14 14:50:56;;;;;;;7.17;1.63;;;;;;;13.90;36.55;100451.59;6214602;28;20225;-56
2021/03/14 14:54:16;;;;;;;7.77;1.87;;;;;;;15.14;34.89;100454.75;6214658;28;20228;-56
2021/03/14 14:57:37;;;;;;;3.47;1.33;;;;;;;14.93;33.91;100451.06;6199430;28;20230;-58
2021/03/14 15:00:57;;;;;;;7.23;2.67;;;;;;;14.85;32.83;100453.09;6213487;28;20240;-57
2021/03/14 15:04:18;;;;;;;3.07;1.10;;;;;;;14.43;33.52;100458.75;6203411;28;20237;-57
2021/03/14 15:07:40;;;;;;;5.60;1.50;;;;;;;14.26;34.28;100459.25;6210342;28;20232;-58
2021/03/14 15:11:00;;;;;;;3.77;1.20;;;;;;;14.76;33.44;100451.59;6197800;28;20233;-57
2021/03/14 15:14:21;;;;;;;6.07;1.60;;;;;;;15.08;33.38;100449.72;6211335;28;20592;-58
2021/03/14 15:17:41;;;;;;;4.83;1.53;;;;;;;13.82;35.19;100450.91;6211662;28;20638;-58
2021/03/14 15:21:03;;;;;;;3.23;1.27;;;;;;;12.94;35.45;100462.81;6214958;28;20552;-59
2021/03/14 15:24:24;;;;;;;3.57;1.43;;;;;;;12.64;35.96;100467.88;6212918;28;20364;-58
2021/03/14 15:27:48;;;;;;;3.80;1.10;;;;;;;12.63;36.28;100460.06;6214945;28;20260;-58
2021/03/14 15:31:08;;;;;;;3.03;1.80;;;;;;;12.13;37.52;100476.78;6215325;28;20241;-55
2021/03/14 15:34:29;;;;;;;4.93;2.70;;;;;;;13.16;37.59;100479.69;6214062;28;20233;-60
2021/03/14 15:37:50;;;;;;;5.47;1.70;;;;;;;12.60;38.03;100484.50;6214304;28;20592;-58
2021/03/14 15:41:12;;;;;;;6.00;1.57;;;;;;;12.36;38.12;100484.16;6212506;28;20260;-59
2021/03/14 15:44:32;;;;;;;5.20;1.60;;;;;;;12.41;38.48;100490.13;6201758;28;20260;-58
2021/03/14 15:47:53;;;;;;;4.10;2.07;;;;;;;11.82;40.66;100485.25;6214781;28;20237;-60
2021/03/14 15:51:14;;;;;;;4.43;1.40;;;;;;;12.15;39.74;100487.22;6214887;28;20241;-58
2021/03/14 15:54:35;;;;;;;5.97;2.87;;;;;;;12.40;38.51;100483.19;6206223;28;20716;-57
2021/03/14 15:57:55;;;;;;;6.10;1.67;;;;;;;12.72;37.75;100489.44;6203742;28;20583;-58
2021/03/14 16:01:16;;;;;;;3.80;1.43;;;;;;;12.65;37.85;100494.84;6201345;28;20233;-58
2021/03/14 16:04:36;;;;;;;5.10;1.50;;;;;;;12.17;39.16;100493.25;6202983;28;20264;-57